createdAt,value
2023-05-11T00:00:48.096Z,1.30
2023-05-11T00:03:14.901Z,1.13
2023-05-11T00:05:42.642Z,1.40
2023-05-11T00:08:09.440Z,1.47
2023-05-11T00:10:36.083Z,1.20
2023-05-11T00:13:02.797Z,1.40
2023-05-11T00:15:29.571Z,1.47
2023-05-11T00:17:56.286Z,1.40
2023-05-11T00:20:24.086Z,1.10
2023-05-11T00:25:28.723Z,1.17
2023-05-11T00:27:55.416Z,1.33
2023-05-11T00:30:22.261Z,1.17
2023-05-11T00:32:51.597Z,1.07
2023-05-11T00:35:18.321Z,1.63
2023-05-11T00:37:45.221Z,1.37
2023-05-11T00:40:12.050Z,1.20
2023-05-11T00:42:38.691Z,1.17
2023-05-11T00:45:06.066Z,1.10
2023-05-11T00:47:33.360Z,1.30
2023-05-11T00:50:00.211Z,1.17
2023-05-11T00:52:27.078Z,1.03
2023-05-11T00:54:53.819Z,1.17
2023-05-11T00:57:21.524Z,1.30
2023-05-11T00:59:49.944Z,1.10
2023-05-11T01:04:48.411Z,1.00
2023-05-11T01:07:21.207Z,1.30
2023-05-11T01:10:14.634Z,1.10
2023-05-11T01:15:51.048Z,1.00
2023-05-11T01:18:29.404Z,1.13
2023-05-11T01:21:00.868Z,1.40
2023-05-11T01:23:54.243Z,1.10
2023-05-11T01:29:41.416Z,1.00
2023-05-11T01:32:18.009Z,1.10
2023-05-11T01:34:46.334Z,1.10
2023-05-11T01:37:19.023Z,1.10
2023-05-11T01:39:57.266Z,0.87
2023-05-11T01:42:32.732Z,0.97
2023-05-11T01:45:01.138Z,0.90
2023-05-11T01:50:09.591Z,0.90
2023-05-11T01:55:18.116Z,1.03
2023-05-11T01:57:45.618Z,1.00
2023-05-11T02:00:13.379Z,1.10
2023-05-11T02:02:41.221Z,1.20
2023-05-11T02:05:09.517Z,1.00
2023-05-11T02:07:38.795Z,1.27
2023-05-11T02:10:06.674Z,1.10
2023-05-11T02:12:35.563Z,1.03
2023-05-11T02:15:04.901Z,1.40
2023-05-11T02:17:34.207Z,1.20
2023-05-11T02:20:03.746Z,1.13
2023-05-11T02:22:32.371Z,1.40
2023-05-11T02:24:59.086Z,1.20
2023-05-11T02:27:25.721Z,1.20
2023-05-11T02:29:52.782Z,1.60
2023-05-11T02:32:22.869Z,1.10
2023-05-11T02:35:02.185Z,1.07
2023-05-11T02:37:31.326Z,1.03
2023-05-11T02:40:01.379Z,1.17
2023-05-11T02:42:31.138Z,1.10
2023-05-11T02:45:09.163Z,1.27
2023-05-11T02:47:40.125Z,1.23
2023-05-11T02:50:08.593Z,1.00
2023-05-11T02:52:40.331Z,1.10
2023-05-11T02:55:08.732Z,1.27
2023-05-11T02:57:36.102Z,1.00
2023-05-11T03:00:03.987Z,1.30
2023-05-11T03:02:30.947Z,1.40
2023-05-11T03:04:57.796Z,1.13
2023-05-11T03:07:24.515Z,1.20
2023-05-11T03:09:51.297Z,1.60
2023-05-11T03:12:18.389Z,1.50
2023-05-11T03:14:45.458Z,1.03
2023-05-11T03:17:13.772Z,1.10
2023-05-11T03:19:42.371Z,1.10
2023-05-11T03:22:10.714Z,1.40
2023-05-11T03:24:38.721Z,1.23
2023-05-11T03:27:08.583Z,1.43
2023-05-11T03:29:38.728Z,1.10
2023-05-11T03:32:05.711Z,1.30
2023-05-11T03:34:32.647Z,1.10
2023-05-11T03:37:00.842Z,1.63
2023-05-11T03:39:31.438Z,1.43
2023-05-11T03:41:59.563Z,1.03
2023-05-11T03:44:27.114Z,1.40
2023-05-11T03:46:55.844Z,1.30
2023-05-11T03:49:22.741Z,1.20
2023-05-11T03:51:49.665Z,1.10
2023-05-11T03:54:16.406Z,0.93
2023-05-11T03:59:16.604Z,1.10
2023-05-11T04:01:44.305Z,1.13
2023-05-11T04:04:11.054Z,1.10
2023-05-11T04:06:37.846Z,1.10
2023-05-11T04:09:04.742Z,1.33
2023-05-11T04:11:31.494Z,1.10
2023-05-11T04:13:58.147Z,1.20
2023-05-11T04:16:24.895Z,1.10
2023-05-11T04:18:51.572Z,1.03
2023-05-11T04:21:18.239Z,2.63
2023-05-11T04:23:44.919Z,1.03
2023-05-11T04:26:11.879Z,1.30
2023-05-11T04:31:10.640Z,1.00
2023-05-11T04:33:37.490Z,0.93
2023-05-11T04:36:04.703Z,1.23
2023-05-11T04:38:31.381Z,1.00
2023-05-11T04:40:58.141Z,1.20
2023-05-11T04:43:25.119Z,1.07
2023-05-11T04:45:52.015Z,1.00
2023-05-11T04:48:20.729Z,1.10
2023-05-11T04:50:47.928Z,1.17
2023-05-11T04:53:14.936Z,1.00
2023-05-11T04:55:41.624Z,1.30
2023-05-11T04:58:08.277Z,1.20
2023-05-11T05:00:36.755Z,1.10
2023-05-11T05:05:40.869Z,1.10
2023-05-11T05:08:07.714Z,1.20
2023-05-11T05:10:34.410Z,1.23
2023-05-11T05:13:01.457Z,1.30
2023-05-11T05:15:28.182Z,1.50
2023-05-11T05:17:54.886Z,1.60
2023-05-11T05:20:21.671Z,1.40
2023-05-11T05:22:48.392Z,1.37
2023-05-11T05:25:15.086Z,1.10
2023-05-11T05:27:41.691Z,1.40
2023-05-11T05:30:08.774Z,1.33
2023-05-11T05:32:35.488Z,1.60
2023-05-11T05:35:02.371Z,1.30
2023-05-11T05:37:29.694Z,1.13
2023-05-11T05:39:56.370Z,1.10
2023-05-11T05:42:22.988Z,1.20
2023-05-11T05:44:50.219Z,1.37
2023-05-11T05:47:17.055Z,1.43
2023-05-11T05:49:43.747Z,1.30
2023-05-11T05:52:10.822Z,1.50
2023-05-11T05:54:37.470Z,1.43
2023-05-11T05:57:04.212Z,1.43
2023-05-11T05:59:30.861Z,1.10
2023-05-11T06:01:57.550Z,1.40
2023-05-11T06:04:24.474Z,1.30
2023-05-11T06:06:51.221Z,1.60
2023-05-11T06:09:17.962Z,1.47
2023-05-11T06:11:44.602Z,1.30
2023-05-11T06:14:11.242Z,1.53
2023-05-11T06:16:38.068Z,1.43
2023-05-11T06:19:04.955Z,1.50
2023-05-11T06:21:31.685Z,1.57
2023-05-11T06:23:58.311Z,1.40
2023-05-11T06:26:25.445Z,1.47
2023-05-11T06:28:52.885Z,1.40
2023-05-11T06:31:19.691Z,1.63
2023-05-11T06:33:46.463Z,1.70
2023-05-11T06:36:13.177Z,1.53
2023-05-11T06:38:39.890Z,1.60
2023-05-11T06:41:07.690Z,1.60
2023-05-11T06:43:34.377Z,1.60
2023-05-11T06:46:01.151Z,1.33
2023-05-11T06:48:30.105Z,1.57
2023-05-11T06:50:57.054Z,1.60
2023-05-11T06:53:23.810Z,1.57
2023-05-11T06:55:50.648Z,1.20
2023-05-11T06:58:20.714Z,1.40
2023-05-11T07:00:47.577Z,1.33
2023-05-11T07:03:14.383Z,1.50
2023-05-11T07:05:41.220Z,1.53
2023-05-11T07:08:07.962Z,1.60
2023-05-11T07:10:34.694Z,2.17
2023-05-11T07:13:01.360Z,1.60
2023-05-11T07:15:28.140Z,1.60
2023-05-11T07:17:54.886Z,1.40
2023-05-11T07:20:21.677Z,1.80
2023-05-11T07:22:48.646Z,1.60
2023-05-11T07:25:15.485Z,1.60
2023-05-11T07:27:42.335Z,1.70
2023-05-11T07:30:09.333Z,2.10
2023-05-11T07:32:36.087Z,1.60
2023-05-11T07:35:02.763Z,2.03
2023-05-11T07:37:29.438Z,1.80
2023-05-11T07:39:56.076Z,1.77
2023-05-11T07:42:23.523Z,1.83
2023-05-11T07:44:50.259Z,1.57
2023-05-11T07:47:19.144Z,1.57
2023-05-11T07:49:47.592Z,1.63
2023-05-11T07:52:14.676Z,1.50
2023-05-11T07:54:41.577Z,1.73
2023-05-11T07:59:41.684Z,2.10
2023-05-11T08:02:11.576Z,1.80
2023-05-11T08:04:39.732Z,1.90
2023-05-11T08:07:06.412Z,2.47
2023-05-11T08:09:33.114Z,2.00
2023-05-11T08:12:01.827Z,2.30
2023-05-11T08:14:28.829Z,1.90
2023-05-11T08:16:55.607Z,2.17
2023-05-11T08:19:22.271Z,2.10
2023-05-11T08:21:49.169Z,2.23
2023-05-11T08:24:15.861Z,1.90
2023-05-11T08:26:43.041Z,2.17
2023-05-11T08:29:11.289Z,2.20
2023-05-11T08:31:38.433Z,2.20
2023-05-11T08:34:15.789Z,2.40
2023-05-11T08:36:46.983Z,4.88
2023-05-11T08:39:13.755Z,2.53
2023-05-11T08:44:15.004Z,1.90
2023-05-11T08:46:47.640Z,2.00
2023-05-11T08:51:52.590Z,2.30
2023-05-11T08:54:19.364Z,2.20
2023-05-11T08:56:48.258Z,2.10
2023-05-11T08:59:15.409Z,2.30
2023-05-11T09:01:42.210Z,2.20
2023-05-11T09:04:09.205Z,2.20
2023-05-11T09:06:37.091Z,2.13
2023-05-11T09:09:04.448Z,2.10
2023-05-11T09:11:31.683Z,2.50
2023-05-11T09:13:59.520Z,2.33
2023-05-11T09:16:36.808Z,2.25
2023-05-11T09:19:04.694Z,2.28
2023-05-11T09:21:32.168Z,2.20
2023-05-11T09:24:02.178Z,2.15
2023-05-11T09:26:29.990Z,2.13
2023-05-11T09:34:23.684Z,2.50
2023-05-11T09:36:52.625Z,2.40
2023-05-11T09:39:36.949Z,2.47
2023-05-11T09:42:11.860Z,2.33
2023-05-11T09:44:39.048Z,2.40
2023-05-11T09:47:17.794Z,2.08
2023-05-11T09:49:45.832Z,3.07
2023-05-11T09:52:14.337Z,2.50
2023-05-11T09:54:44.525Z,2.60
2023-05-11T09:57:31.732Z,2.53
2023-05-11T10:00:00.401Z,2.30
2023-05-11T10:02:29.696Z,2.40
2023-05-11T10:04:58.203Z,2.30
2023-05-11T10:07:27.647Z,2.33
2023-05-11T10:09:55.797Z,2.20
2023-05-11T10:12:24.268Z,2.30
2023-05-11T10:17:31.185Z,2.07
2023-05-11T10:19:59.050Z,2.30
2023-05-11T10:22:27.523Z,2.63
2023-05-11T10:24:56.862Z,2.47
2023-05-11T10:27:24.173Z,2.13
2023-05-11T10:29:51.722Z,2.13
2023-05-11T10:32:20.029Z,2.27
2023-05-11T10:34:48.158Z,2.00
2023-05-11T10:37:18.256Z,1.73
2023-05-11T10:39:49.277Z,1.97
2023-05-11T10:42:33.794Z,2.13
2023-05-11T10:45:22.064Z,2.00
2023-05-11T10:48:31.369Z,1.73
2023-05-11T10:51:06.776Z,1.70
2023-05-11T10:53:44.407Z,1.90
2023-05-11T10:56:30.851Z,1.90
2023-05-11T10:59:06.118Z,1.90
2023-05-11T11:01:35.617Z,1.80
2023-05-11T11:04:05.895Z,1.87
2023-05-11T11:06:38.276Z,1.80
2023-05-11T11:09:13.032Z,1.70
2023-05-11T11:11:41.252Z,1.83
2023-05-11T11:14:09.974Z,2.10
2023-05-11T11:16:37.930Z,2.10
2023-05-11T11:19:32.524Z,2.00
2023-05-11T11:22:00.968Z,1.90
2023-05-11T11:24:39.506Z,1.90
2023-05-11T11:27:07.334Z,2.23
2023-05-11T11:29:38.086Z,1.90
2023-05-11T11:32:19.607Z,1.70
2023-05-11T11:34:47.416Z,1.90
2023-05-11T11:37:16.200Z,1.90
2023-05-11T11:39:42.985Z,1.60
2023-05-11T11:42:12.211Z,1.63
2023-05-11T11:44:40.258Z,1.50
2023-05-11T11:49:53.537Z,1.75
2023-05-11T11:52:35.992Z,1.60
2023-05-11T11:55:05.320Z,1.77
2023-05-11T11:57:35.196Z,1.80
2023-05-11T12:00:07.489Z,1.90
2023-05-11T12:02:35.070Z,1.80
2023-05-11T12:05:10.766Z,1.27
2023-05-11T12:07:42.588Z,1.60
2023-05-11T12:10:12.217Z,1.20
2023-05-11T12:12:39.596Z,1.40
2023-05-11T12:15:08.000Z,1.50
2023-05-11T12:17:38.768Z,1.42
2023-05-11T12:20:14.366Z,1.40
2023-05-11T12:22:41.850Z,1.30
2023-05-11T12:25:11.543Z,1.00
2023-05-11T12:27:55.736Z,1.13
2023-05-11T12:30:25.461Z,1.30
2023-05-11T12:32:57.509Z,1.52
2023-05-11T12:35:35.022Z,1.42
2023-05-11T12:38:02.888Z,1.50
2023-05-11T12:40:30.767Z,1.50
2023-05-11T12:45:31.075Z,1.45
2023-05-11T12:47:58.734Z,1.33
2023-05-11T12:50:25.496Z,1.25
2023-05-11T12:52:53.051Z,1.48
2023-05-11T12:55:29.800Z,1.23
2023-05-11T12:58:16.207Z,1.60
2023-05-11T13:00:58.411Z,1.10
2023-05-11T13:06:06.401Z,1.10
2023-05-11T13:08:33.277Z,1.00
2023-05-11T13:11:19.000Z,1.00
2023-05-11T13:13:45.907Z,1.20
2023-05-11T13:16:12.647Z,1.20
2023-05-11T13:18:39.540Z,1.10
2023-05-11T13:21:07.826Z,1.10
2023-05-11T13:23:34.642Z,1.38
2023-05-11T13:26:01.300Z,1.00
2023-05-11T13:28:27.988Z,1.17
2023-05-11T13:31:02.266Z,1.20
2023-05-11T13:33:29.098Z,1.10
2023-05-11T13:35:56.028Z,0.85
2023-05-11T13:38:22.721Z,1.13
2023-05-11T13:40:49.375Z,0.63
2023-05-11T13:43:16.091Z,1.00
2023-05-11T13:45:42.950Z,1.10
2023-05-11T13:48:09.635Z,1.10
2023-05-11T13:50:36.390Z,1.10
2023-05-11T13:53:03.300Z,0.80
2023-05-11T13:55:30.420Z,0.80
2023-05-11T13:57:57.345Z,0.60
2023-05-11T14:00:24.174Z,0.82
2023-05-11T14:02:51.981Z,0.80
2023-05-11T14:05:19.031Z,1.05
2023-05-11T14:07:47.893Z,1.05
2023-05-11T14:10:18.454Z,1.02
2023-05-11T14:12:45.919Z,1.25
2023-05-11T14:15:12.821Z,1.00
2023-05-11T14:17:41.866Z,0.73
2023-05-11T14:20:09.225Z,0.70
2023-05-11T14:22:35.891Z,0.90
2023-05-11T14:25:02.676Z,1.00
2023-05-11T14:27:29.295Z,0.70
2023-05-11T14:29:55.954Z,1.00
2023-05-11T14:32:22.668Z,0.80
2023-05-11T14:34:49.417Z,0.90
2023-05-11T14:37:16.098Z,0.70
2023-05-11T14:39:42.803Z,0.90
2023-05-11T14:42:10.705Z,1.08
2023-05-11T14:44:37.395Z,1.00
2023-05-11T14:47:05.533Z,1.33
2023-05-11T14:52:04.624Z,0.82
2023-05-11T14:57:04.046Z,0.90
2023-05-11T14:59:31.249Z,0.90
2023-05-11T15:01:57.929Z,1.02
2023-05-11T15:04:24.817Z,1.10
2023-05-11T15:06:51.689Z,1.20
2023-05-11T15:09:20.452Z,1.23
2023-05-11T15:11:47.416Z,1.00
2023-05-11T15:14:14.050Z,1.13
2023-05-11T15:16:40.843Z,1.02
2023-05-11T15:19:08.040Z,1.20
2023-05-11T15:21:34.783Z,0.80
2023-05-11T15:24:01.416Z,0.80
2023-05-11T15:28:59.317Z,1.00
2023-05-11T15:31:26.124Z,1.05
2023-05-11T15:33:52.882Z,1.00
2023-05-11T15:36:19.607Z,1.10
2023-05-11T15:38:46.678Z,1.02
2023-05-11T15:41:13.423Z,1.10
2023-05-11T15:43:40.059Z,1.35
2023-05-11T15:46:07.630Z,1.17
2023-05-11T15:48:34.471Z,1.00
2023-05-11T15:51:01.421Z,1.10
2023-05-11T15:53:28.110Z,1.27
2023-05-11T15:55:55.869Z,1.10
2023-05-11T15:58:23.244Z,0.90
2023-05-11T16:00:50.301Z,1.00
2023-05-11T16:03:17.454Z,1.13
2023-05-11T16:05:45.122Z,1.00
2023-05-11T16:08:12.537Z,0.88
2023-05-11T16:10:39.545Z,1.00
2023-05-11T16:13:06.258Z,0.85
2023-05-11T16:15:33.197Z,1.10
2023-05-11T16:18:01.565Z,0.90
2023-05-11T16:20:30.887Z,0.90
2023-05-11T16:22:57.584Z,0.80
2023-05-11T16:25:24.351Z,0.85
2023-05-11T16:27:51.152Z,0.90
2023-05-11T16:30:24.960Z,0.90
2023-05-11T16:32:52.826Z,0.93
2023-05-11T16:35:19.795Z,0.80
2023-05-11T16:37:48.073Z,1.10
2023-05-11T16:40:18.455Z,1.08
2023-05-11T16:42:47.000Z,1.00
2023-05-11T16:45:13.730Z,1.20
2023-05-11T16:47:40.515Z,1.13
2023-05-11T16:50:07.437Z,1.15
2023-05-11T16:52:34.203Z,1.50
2023-05-11T16:55:00.885Z,1.00
2023-05-11T16:57:27.497Z,1.15
2023-05-11T16:59:54.196Z,1.13
2023-05-11T17:02:21.396Z,1.03
2023-05-11T17:04:48.233Z,1.13
2023-05-11T17:07:15.877Z,1.70
2023-05-11T17:09:43.185Z,1.20
2023-05-11T17:12:10.746Z,1.30
2023-05-11T17:14:37.735Z,1.30
2023-05-11T17:17:05.076Z,1.50
2023-05-11T17:19:31.844Z,1.40
2023-05-11T17:21:58.882Z,1.10
2023-05-11T17:24:25.702Z,1.40
2023-05-11T17:26:52.403Z,1.20
2023-05-11T17:29:19.116Z,1.37
2023-05-11T17:31:49.061Z,1.20
2023-05-11T17:34:16.389Z,1.30
2023-05-11T17:36:43.516Z,1.03
2023-05-11T17:39:13.334Z,1.27
2023-05-11T17:41:39.975Z,1.08
2023-05-11T17:44:06.680Z,1.40
2023-05-11T17:46:34.722Z,1.10
2023-05-11T17:49:02.088Z,1.30
2023-05-11T17:51:28.997Z,1.10
2023-05-11T17:53:56.480Z,1.37
2023-05-11T17:56:23.570Z,1.20
2023-05-11T17:58:51.878Z,1.00
2023-05-11T18:01:19.778Z,1.33
2023-05-11T18:03:47.100Z,2.40
2023-05-11T18:06:13.911Z,2.80
2023-05-11T18:08:40.778Z,2.10
2023-05-11T18:11:10.264Z,2.30
2023-05-11T18:13:36.976Z,1.87
2023-05-11T18:16:04.053Z,1.40
2023-05-11T18:18:30.845Z,1.37
2023-05-11T18:20:57.696Z,1.30
2023-05-11T18:23:24.395Z,1.20
2023-05-11T18:25:51.026Z,1.00
2023-05-11T18:28:17.656Z,1.23
2023-05-11T18:30:44.315Z,1.40
2023-05-11T18:33:11.245Z,1.10
2023-05-11T18:35:39.206Z,1.43
2023-05-11T18:38:06.070Z,1.53
2023-05-11T18:40:32.754Z,1.20
2023-05-11T18:42:59.492Z,1.50
2023-05-11T18:45:30.460Z,1.40
2023-05-11T18:47:57.396Z,1.30
2023-05-11T18:50:24.350Z,1.23
2023-05-11T18:52:51.093Z,1.07
2023-05-11T18:55:18.068Z,1.00
2023-05-11T18:57:45.211Z,1.03
2023-05-11T19:00:12.274Z,1.10
2023-05-11T19:02:38.950Z,0.80
2023-05-11T19:07:37.704Z,1.03
2023-05-11T19:10:04.715Z,1.00
2023-05-11T19:12:31.609Z,1.37
2023-05-11T19:14:58.313Z,0.90
2023-05-11T19:17:25.007Z,1.00
2023-05-11T19:19:52.426Z,1.00
2023-05-11T19:22:21.242Z,1.13
2023-05-11T19:24:47.949Z,1.10
2023-05-11T19:27:15.637Z,1.07
2023-05-11T19:29:42.953Z,1.30
2023-05-11T19:32:09.683Z,1.50
2023-05-11T19:34:36.748Z,1.07
2023-05-11T19:37:03.481Z,1.30
2023-05-11T19:39:30.191Z,1.00
2023-05-11T19:41:57.112Z,1.20
2023-05-11T19:44:23.781Z,1.30
2023-05-11T19:46:50.450Z,1.40
2023-05-11T19:49:17.608Z,1.20
2023-05-11T19:51:44.376Z,1.47
2023-05-11T19:54:11.656Z,1.00
2023-05-11T19:56:38.618Z,1.30
2023-05-11T19:59:05.325Z,1.23
2023-05-11T20:01:32.054Z,1.23
2023-05-11T20:03:59.267Z,1.37
2023-05-11T20:06:26.519Z,1.67
2023-05-11T20:08:54.371Z,1.43
2023-05-11T20:11:22.311Z,1.63
2023-05-11T20:13:49.436Z,1.50
2023-05-11T20:16:16.314Z,1.60
2023-05-11T20:18:43.120Z,1.67
2023-05-11T20:21:10.066Z,1.57
2023-05-11T20:23:37.679Z,1.50
2023-05-11T20:26:04.798Z,1.67
2023-05-11T20:28:31.518Z,1.60
2023-05-11T20:30:58.209Z,1.40
2023-05-11T20:35:54.851Z,1.60
2023-05-11T20:38:22.299Z,1.60
2023-05-11T20:40:49.191Z,1.70
2023-05-11T20:43:16.700Z,2.37
2023-05-11T20:45:43.881Z,1.80
2023-05-11T20:48:11.099Z,1.70
2023-05-11T20:50:39.055Z,1.90
2023-05-11T20:53:05.709Z,1.87
2023-05-11T20:55:32.340Z,2.00
2023-05-11T20:57:59.063Z,2.40
2023-05-11T21:00:26.052Z,2.40
2023-05-11T21:05:25.689Z,2.20
2023-05-11T21:07:52.675Z,1.90
2023-05-11T21:10:19.642Z,2.27
2023-05-11T21:12:46.538Z,2.03
2023-05-11T21:15:13.164Z,1.90
2023-05-11T21:20:17.315Z,1.90
2023-05-11T21:22:44.121Z,1.83
2023-05-11T21:25:10.789Z,1.97
2023-05-11T21:27:37.402Z,2.10
2023-05-11T21:30:04.964Z,2.17
2023-05-11T21:32:31.672Z,2.07
2023-05-11T21:34:58.327Z,2.00
2023-05-11T21:37:25.085Z,2.00
2023-05-11T21:39:52.594Z,1.87
2023-05-11T21:42:19.222Z,2.00
2023-05-11T21:44:45.933Z,2.33
2023-05-11T21:47:12.576Z,2.30
2023-05-11T21:49:39.249Z,2.10
2023-05-11T21:54:38.662Z,2.03
2023-05-11T21:57:05.848Z,2.03
2023-05-11T21:59:32.529Z,2.00
2023-05-11T22:01:59.291Z,2.10
2023-05-11T22:04:27.329Z,2.00
2023-05-11T22:06:59.661Z,2.47
2023-05-11T22:09:28.122Z,1.90
2023-05-11T22:11:54.748Z,2.07
2023-05-11T22:14:24.229Z,2.17
2023-05-11T22:16:50.863Z,2.10
2023-05-11T22:19:17.571Z,2.10
2023-05-11T22:21:44.241Z,2.00
2023-05-11T22:24:10.969Z,2.07
2023-05-11T22:26:37.642Z,2.27
2023-05-11T22:29:04.323Z,2.00
2023-05-11T22:31:31.428Z,2.20
2023-05-11T22:33:59.229Z,2.00
2023-05-11T22:36:25.868Z,2.20
2023-05-11T22:38:52.533Z,2.00
2023-05-11T22:41:19.197Z,2.13
2023-05-11T22:43:47.972Z,2.10
2023-05-11T22:46:14.664Z,1.87
2023-05-11T22:48:41.412Z,2.30
2023-05-11T22:51:08.492Z,2.40
2023-05-11T22:53:35.135Z,2.70
2023-05-11T22:56:05.994Z,2.30
2023-05-11T22:58:32.659Z,2.70
2023-05-11T23:14:01.408Z,2.10
2023-05-11T23:16:28.614Z,2.43
2023-05-11T23:18:55.474Z,2.40
2023-05-11T23:21:22.216Z,2.43
2023-05-11T23:23:48.840Z,1.83
2023-05-11T23:26:15.538Z,2.30
2023-05-11T23:28:42.225Z,2.57
2023-05-11T23:31:08.897Z,2.43
2023-05-11T23:33:35.636Z,2.30
2023-05-11T23:36:02.434Z,2.83
2023-05-11T23:38:29.376Z,3.00
2023-05-11T23:40:56.016Z,2.67
2023-05-11T23:43:23.016Z,2.70
2023-05-11T23:45:57.697Z,2.90
2023-05-11T23:48:24.504Z,2.53
2023-05-11T23:50:51.173Z,2.63
2023-05-11T23:55:50.150Z,2.40
2023-05-11T23:58:16.814Z,2.60
